Latest Weather Observations for Adelaide

IDS60901

Issued at 10:25 pm CDT Tuesday 21 October 2014 (issued every 10 minutes, with the page automatically refreshed every 10 minutes)

About weather observations | Map of Adelaide area stations | Latest observations for Adelaide area | Other Formats
Station Details ID: 023090 Name: KENT TOWN Lat: -34.92 Lon: 138.62 Height: 48.0 m
Data from the previous 72 hours. | See also: Recent months at Adelaide
Date/Time
CDT
Tmp

°C
App
Tmp
°C
Dew
Point
°C
Rel
Hum
%
Delta-T

°C
Wind Press
QNH
hPa
Press
MSL
hPa
Rain
since
9 am
mm
Dir
 
Spd
km/h
Gust
km/h
Spd
kts
Gust
kts
21/10:00pm 29.4 26.3 3.5 19 13.1 N 9 17 5 9 1017.3 - 0.0
21/09:30pm 29.2 25.8 1.9 17 13.4 NE 9 17 5 9 1017.0 - 0.0
21/09:00pm 28.2 25.5 2.8 19 12.6 ENE 6 13 3 7 1016.5 1016.5 0.0
21/08:30pm 28.2 25.8 5.2 23 11.9 ESE 7 9 4 5 1016.4 - 0.0
21/08:00pm 29.0 26.9 6.6 24 11.9 E 7 9 4 5 1016.4 - 0.0
21/07:30pm 30.2 28.3 7.6 24 12.3 E 7 9 4 5 1016.5 - 0.0
21/07:00pm 31.6 29.5 6.6 21 13.5 E 7 11 4 6 1016.4 - 0.0
21/06:30pm 32.7 30.1 6.2 19 14.3 ESE 9 13 5 7 1016.3 - 0.0
21/06:00pm 33.7 30.2 1.4 13 16.2 SSE 9 13 5 7 1016.3 1016.3 0.0
21/05:30pm 33.8 31.7 5.8 17 15.1 SW 6 9 3 5 1016.5 - 0.0
21/05:00pm 34.1 31.1 2.0 13 16.3 W 7 11 4 6 1016.5 - 0.0
21/04:30pm 34.6 31.1 1.1 12 16.8 W 9 15 5 8 1016.6 - 0.0
21/04:00pm 35.2 29.7 -1.9 9 17.8 WNW 17 26 9 14 1016.9 - 0.0
21/03:30pm 36.8 31.4 -1.0 9 18.6 W 17 22 9 12 1016.8 - 0.0
21/03:00pm 36.9 30.9 -1.8 8 18.8 NW 20 28 11 15 1017.1 1017.1 0.0
21/02:30pm 36.7 31.0 -0.9 9 18.5 WNW 19 26 10 14 1017.5 - 0.0
21/02:00pm 36.1 31.5 -1.2 9 18.2 NNE 13 22 7 12 1017.7 - 0.0
21/01:30pm 36.4 31.9 -0.3 10 18.2 N 13 22 7 12 1018.1 - 0.0
21/01:00pm 35.8 30.6 0.3 10 17.7 NNE 17 32 9 17 1018.6 - 0.0
21/12:30pm 35.0 30.1 1.7 12 16.9 NNE 17 28 9 15 1019.0 - 0.0
21/12:00pm 34.1 28.1 -1.3 10 17.0 NNE 20 30 11 16 1019.4 1019.4 0.0
21/11:30am 34.4 28.7 -0.9 10 17.1 NNE 19 35 10 19 1019.6 - 0.0
21/11:00am 33.7 27.8 -1.0 11 16.7 NNE 20 30 11 16 1019.8 - 0.0
21/10:30am 32.1 26.7 2.7 15 14.9 NE 20 30 11 16 1019.9 - 0.0
21/10:00am 31.3 26.1 2.4 16 14.5 NE 19 30 10 16 1020.0 - 0.0
21/09:30am 29.8 23.5 1.7 16 13.8 NE 24 35 13 19 1019.9 - 0.0
21/09:00am 28.8 22.8 1.3 17 13.3 NE 22 32 12 17 1019.8 1019.8 0.0
21/08:30am 27.5 23.0 2.3 19 12.3 NNE 15 26 8 14 1019.9 - 0.0
21/08:00am 26.0 21.1 1.8 20 11.6 NE 17 28 9 15 1019.7 - 0.0
21/07:30am 25.5 20.5 1.5 21 11.4 NE 17 28 9 15 1019.5 - 0.0
21/07:00am 25.0 18.8 0.0 19 11.5 ENE 22 35 12 19 1019.1 - 0.0
21/06:30am 25.1 18.6 0.2 19 11.5 ENE 24 37 13 20 1018.9 - 0.0
21/06:00am 25.3 19.1 -0.6 18 11.8 ENE 22 33 12 18 1018.7 1018.7 0.0
21/05:30am 25.2 19.4 -0.4 18 11.7 NE 20 32 11 17 1018.6 - 0.0
21/05:00am 25.0 19.4 0.0 19 11.5 ENE 19 32 10 17 1018.5 - 0.0
21/04:30am 24.8 19.8 1.1 21 11.1 ENE 17 24 9 13 1018.4 - 0.0
21/04:00am 25.1 19.5 0.2 19 11.5 ENE 19 32 10 17 1018.5 - 0.0
21/03:30am 25.5 20.5 1.1 20 11.5 ENE 17 26 9 14 1018.7 - 0.0
21/03:00am 25.3 20.2 1.0 20 11.4 ENE 17 30 9 16 1019.0 1019.0 0.0
21/02:30am 25.6 20.5 0.9 20 11.6 ENE 17 28 9 15 1019.2 - 0.0
21/02:00am 25.5 20.6 1.8 21 11.3 ENE 17 33 9 18 1019.5 - 0.0
21/01:30am 25.4 20.5 2.0 21 11.2 ENE 17 30 9 16 1019.9 - 0.0
21/01:00am 26.0 20.6 1.0 19 11.8 ENE 19 35 10 19 1020.0 - 0.0
21/12:30am 26.2 19.7 0.2 18 12.1 E 24 43 13 23 1020.2 - 0.0
21/12:00am 26.3 19.5 0.9 19 12.0 E 26 41 14 22 1020.5 1020.5 0.0
 
Date/Time
CDT
Tmp

°C
App
Tmp
°C
Dew
Point
°C
Rel
Hum
%
Delta-T

°C
Wind Press
QNH
hPa
Press
MSL
hPa
Rain
since
9 am
mm
Dir
 
Spd
km/h
Gust
km/h
Spd
kts
Gust
kts
20/11:30pm 26.6 20.1 0.3 18 12.3 E 24 44 13 24 1020.7 - 0.0
20/11:00pm 26.5 20.4 0.5 18 12.2 E 22 35 12 19 1021.1 - 0.0
20/10:30pm 26.5 20.4 0.5 18 12.2 E 22 39 12 21 1021.4 - 0.0
20/10:00pm 26.6 21.0 1.5 19 12.0 E 20 37 11 20 1021.4 - 0.0
20/09:30pm 26.4 21.6 2.6 21 11.6 E 17 30 9 16 1021.4 - 0.0
20/09:00pm 26.3 21.6 3.4 22 11.3 E 17 30 9 16 1020.9 1020.9 0.0
20/08:30pm 26.7 21.6 3.9 23 11.4 E 20 37 11 20 1020.7 - 0.0
20/08:00pm 26.6 22.2 5.0 25 11.0 ESE 17 28 9 15 1020.4 - 0.0
20/07:30pm 27.3 23.8 5.6 25 11.2 E 13 24 7 13 1020.5 - 0.0
20/07:00pm 28.3 24.7 5.0 22 12.0 E 13 22 7 12 1020.1 - 0.0
20/06:30pm 28.9 25.5 5.8 23 12.1 E 13 24 7 13 1020.1 - 0.0
20/06:00pm 29.7 25.4 5.4 21 12.7 E 17 26 9 14 1020.0 1020.0 0.0
20/05:30pm 30.3 26.1 5.9 21 12.9 E 17 26 9 14 1020.0 - 0.0
20/05:00pm 30.9 26.8 6.1 21 13.2 E 17 24 9 13 1019.9 - 0.0
20/04:30pm 31.2 27.4 5.7 20 13.5 E 15 24 8 13 1020.0 - 0.0
20/04:00pm 31.4 27.5 5.5 19 13.7 E 15 26 8 14 1020.2 - 0.0
20/03:30pm 32.0 28.9 5.7 19 14.0 E 11 19 6 10 1020.5 - 0.0
20/03:00pm 31.8 28.3 3.5 16 14.5 ENE 11 20 6 11 1020.9 1020.9 0.0
20/02:30pm 31.7 27.5 4.0 17 14.3 NNE 15 24 8 13 1021.4 - 0.0
20/02:00pm 31.1 26.7 2.6 16 14.4 N 15 22 8 12 1021.9 - 0.0
20/01:30pm 30.2 25.5 3.3 18 13.6 N 17 26 9 14 1022.2 - 0.0
20/01:00pm 29.7 26.0 4.7 20 12.9 N 13 24 7 13 1022.4 - 0.0
20/12:30pm 28.4 25.6 7.0 26 11.4 N 11 19 6 10 1022.8 - 0.0
20/12:00pm 27.4 25.5 8.9 31 10.1 NNW 9 15 5 8 1023.2 1023.2 0.0
20/11:30am 26.2 23.3 6.4 28 10.3 NNE 11 17 6 9 1023.6 - 0.0
20/11:00am 24.6 22.2 7.2 32 9.1 ENE 9 13 5 7 1024.0 - 0.0
20/10:30am 23.7 19.3 6.6 33 8.8 ENE 19 28 10 15 1024.2 - 0.0
20/10:00am 22.5 20.1 6.9 36 8.0 SE 9 15 5 8 1024.4 - 0.0
20/09:30am 21.3 19.5 7.8 41 7.0 WSW 7 11 4 6 1024.2 - 0.0
20/09:00am 19.3 17.5 8.0 48 5.8 WSW 7 9 4 5 1024.4 1024.4 0.0
20/08:30am 18.3 17.2 8.6 53 5.0 W 4 9 2 5 1024.4 - 0.0
20/08:00am 16.7 15.5 9.6 63 3.7 NW 6 9 3 5 1024.2 - 0.0
20/07:30am 14.9 14.0 9.4 69 2.8 SW 4 7 2 4 1024.0 - 0.0
20/07:00am 13.8 13.7 9.3 74 2.3 CALM 0 0 0 0 1023.9 - 0.0
20/06:30am 13.5 13.3 9.1 75 2.2 CALM 0 0 0 0 1023.7 - 0.0
20/06:00am 13.8 13.2 8.8 72 2.5 SSE 2 9 1 5 1023.5 1023.5 0.0
20/05:30am 14.0 13.1 9.1 72 2.5 SE 4 9 2 5 1023.2 - 0.0
20/05:00am 14.4 13.0 8.9 69 2.8 NNE 6 9 3 5 1023.0 - 0.0
20/04:30am 14.7 13.1 8.8 68 3.0 NNW 7 9 4 5 1022.6 - 0.0
20/04:00am 14.6 14.4 9.1 69 2.8 CALM 0 0 0 0 1022.4 - 0.0
20/03:30am 15.0 14.1 9.1 68 3.0 SE 4 7 2 4 1022.5 - 0.0
20/03:00am 15.4 14.1 9.2 66 3.2 E 6 9 3 5 1022.8 1022.8 0.0
20/02:30am 16.0 15.5 9.2 64 3.5 S 2 7 1 4 1022.9 - 0.0
20/02:00am 16.4 14.4 8.5 59 4.0 SSE 9 13 5 7 1022.8 - 0.0
20/01:30am 16.9 15.3 7.8 55 4.6 N 6 7 3 4 1022.9 - 0.0
20/01:00am 17.1 15.4 8.3 56 4.5 WNW 7 13 4 7 1022.7 - 0.0
20/12:30am 18.3 15.3 7.6 49 5.4 SE 13 20 7 11 1022.6 - 0.0
20/12:00am 18.7 16.8 6.9 46 5.9 ESE 6 19 3 10 1022.6 1022.6 0.0
 
Date/Time
CDT
Tmp

°C
App
Tmp
°C
Dew
Point
°C
Rel
Hum
%
Delta-T

°C
Wind Press
QNH
hPa
Press
MSL
hPa
Rain
since
9 am
mm
Dir
 
Spd
km/h
Gust
km/h
Spd
kts
Gust
kts
19/11:30pm 18.9 16.8 6.7 45 6.1 SSE 7 13 4 7 1022.4 - 0.0
19/11:00pm 19.4 17.0 5.2 39 6.9 E 7 17 4 9 1022.2 - 0.0
19/10:30pm 19.6 14.9 5.0 38 7.1 ESE 19 33 10 18 1022.0 - 0.0
19/10:00pm 19.4 14.9 4.4 37 7.2 SE 17 24 9 13 1022.4 - 0.0
19/09:30pm 19.4 14.3 3.1 34 7.6 SE 19 37 10 20 1022.1 - 0.0
19/09:00pm 19.2 16.0 5.2 39 6.8 ESE 11 30 6 16 1022.1 1022.1 0.0
19/08:30pm 18.9 16.4 8.2 50 5.5 SE 11 24 6 13 1022.2 - 0.0
19/08:00pm 19.5 16.9 9.2 51 5.4 SSE 13 24 7 13 1022.0 - 0.0
19/07:30pm 21.4 18.7 8.9 44 6.6 SSE 13 20 7 11 1021.0 - 0.0
19/07:00pm 22.4 19.5 9.8 44 6.8 SE 15 24 8 13 1020.9 - 0.0
19/06:30pm 25.0 21.5 10.2 39 8.2 SSE 19 30 10 16 1020.6 - 0.0
19/06:00pm 27.8 24.5 10.9 35 9.6 S 19 32 10 17 1020.0 1020.0 0.0
19/05:30pm 29.8 27.2 5.9 22 12.6 WSW 9 15 5 8 1019.6 - 0.0
19/05:00pm 30.2 26.6 2.9 17 13.7 SW 11 17 6 9 1019.6 - 0.0
19/04:30pm 30.9 25.4 -2.2 11 15.3 SW 17 28 9 15 1019.7 - 0.0
19/04:00pm 31.1 26.2 -3.7 10 15.7 SW 13 24 7 13 1019.9 - 0.0
19/03:30pm 31.6 26.7 -0.2 13 15.3 SW 15 22 8 12 1019.9 - 0.0
19/03:00pm 30.9 26.3 -0.7 13 15.0 SW 13 24 7 13 1020.1 1020.1 0.0
19/02:30pm 30.5 25.5 -0.9 13 14.8 SW 15 22 8 12 1020.3 - 0.0
19/02:00pm 30.3 25.0 2.0 16 14.0 WSW 19 28 10 15 1020.5 - 0.0
19/01:30pm 31.5 25.5 1.2 14 14.9 W 22 33 12 18 1020.5 - 0.0
19/01:00pm 31.4 24.7 -4.4 9 16.0 NW 22 32 12 17 1020.4 - 0.0
19/12:30pm 32.0 25.2 -4.7 9 16.4 NW 22 33 12 18 1020.4 - 0.0
19/12:00pm 32.0 26.0 -3.0 10 16.1 NW 19 32 10 17 1020.6 1020.6 0.0
19/11:30am 30.9 24.2 -3.8 10 15.6 NW 22 35 12 19 1020.8 - 0.0
19/11:00am 28.9 22.7 -4.5 11 14.6 NNW 19 35 10 19 1021.0 - 0.0
19/10:30am 29.0 23.4 -3.1 12 14.4 NNW 17 28 9 15 1020.9 - 0.0
19/10:00am 27.5 22.1 -4.4 12 13.8 N 15 28 8 15 1020.9 - 0.0
19/09:30am 26.5 20.9 -2.6 14 12.9 N 17 26 9 14 1020.7 - 0.0
19/09:00am 24.8 21.4 -0.5 19 11.5 NE 7 13 4 7 1020.8 1020.8 0.0
19/08:30am 22.2 19.3 2.5 27 9.3 NE 7 9 4 5 1020.7 - 0.0
19/08:00am 21.9 18.3 0.8 24 9.6 NE 9 13 5 7 1020.3 - 0.0
19/07:30am 22.0 18.0 -2.2 19 10.4 NE 9 15 5 8 1019.7 - 0.0
19/07:00am 22.1 17.7 -2.8 18 10.6 NNE 11 20 6 11 1019.5 - 0.0
19/06:30am 21.9 17.8 -2.8 19 10.5 NNE 9 15 5 8 1019.0 - 0.0
19/06:00am 22.1 17.2 -3.7 17 10.8 NNE 13 19 7 10 1018.3 1018.3 0.0
19/05:30am 19.5 15.8 -0.1 27 8.6 NE 9 15 5 8 1018.3 - 0.0
19/05:00am 19.4 15.8 0.8 28 8.3 NE 9 13 5 7 1018.2 - 0.0
19/04:30am 17.1 13.3 1.6 35 6.9 NE 11 19 6 10 1018.1 - 0.0
19/04:00am 16.5 14.0 3.5 42 6.0 NNE 6 9 3 5 1018.4 - 0.0
19/03:30am 16.6 13.7 2.7 39 6.3 NE 7 11 4 6 1018.4 - 0.0
19/03:00am 16.5 13.8 3.8 42 5.9 NE 7 9 4 5 1018.8 1018.8 0.0
19/02:30am 17.4 14.5 2.7 37 6.7 E 7 9 4 5 1018.8 - 0.0
19/02:00am 17.3 14.5 3.2 39 6.5 N 7 9 4 5 1018.9 - 0.0
19/01:30am 17.6 14.8 3.1 38 6.7 NNE 7 9 4 5 1018.8 - 0.0
19/01:00am 17.8 16.0 3.7 39 6.6 NE 2 7 1 4 1019.0 - 0.0
19/12:30am 18.3 15.8 3.8 38 6.8 NNE 6 7 3 4 1019.2 - 0.0
19/12:00am 18.6 16.3 4.6 39 6.7 NNE 6 7 3 4 1019.3 1019.3 0.0
 
Date/Time
CDT
Tmp

°C
App
Tmp
°C
Dew
Point
°C
Rel
Hum
%
Delta-T

°C
Wind Press
QNH
hPa
Press
MSL
hPa
Rain
since
9 am
mm
Dir
 
Spd
km/h
Gust
km/h
Spd
kts
Gust
kts
18/11:30pm 19.5 17.2 3.0 33 7.7 NNE 4 7 2 4 1019.6 - 0.0
18/11:00pm 19.6 16.8 3.2 33 7.7 ENE 7 9 4 5 1019.6 - 0.0
18/10:30pm 20.4 18.0 1.9 29 8.5 ENE 4 9 2 5 1019.7 - 0.0

Latest Capital City Observations: Canberra | Sydney | Melbourne | Brisbane | Adelaide | Perth | Hobart | Darwin

Other Formats:

Comma delimited format used in spreadsheet applications
http://www.bom.gov.au/fwo/IDS60901/IDS60901.94675.axf

JavaScript Object Notation format (JSON) in row-major order
http://www.bom.gov.au/fwo/IDS60901/IDS60901.94675.json